Bridgeport, NE

9:15 AM MDT on September 02, 2014 (GMT -0600)
The Clinger Family | Change Station
CLOSE
Current Station
Personal Weather Station
Location: Bridgeport, NE
Elevation: 3666 ft
Nearby Weather Stations

Elev 3666 ft 41.66 °N, 103.10 °W | Updated 5 minutes ago

Clear
Clear
58.6 °F
Feels Like 58.6 °F
N
1.0
Wind Variable Wind from ESE

Today
High -- | Low -- °F
--% Chance of Precip.
Yesterday
High -- | Low -- °F
Precip. -- in
6:19 AM 7:23 PM
First Quarter, 52% visible
Pressure 29.99 in
Visibility 10.0 miles
Clouds Clear
Dew Point 52 °F
Humidity 79%
Rainfall 0.00 in
Snow Depth Not available.
UV 2.2 out of 12
Pollen 8.80 out of 12
Air Quality Not available.
Flu Activity Not available.
METAR KAIA 021453Z AUTO 19005KT 10SM CLR 15/11 A3005 RMK AO2 SLP156 T01500106 58002

More Conditions Fewer Conditions

Pressure 29.99 in
Visibility 10.0 miles
Clouds Clear
Dew Point 52 °F
Humidity 79%
Rainfall 0.00 in
Snow Depth Not available.
UV 2.2 out of 12
Pollen 8.80 out of 12
Air Quality Not available.
Flu Activity Not available.
METAR KAIA 021453Z AUTO 19005KT 10SM CLR 15/11 A3005 RMK AO2 SLP156 T01500106 58002

More Conditions Fewer Conditions

10-Day Weather Forecast

Almanac

Astronomy

Sep. 02, 2014 Rise Set
Actual Time 6:19 AM MDT 7:23 PM MDT
Civil Twilight 5:50 AM MDT 7:52 PM MDT
Nautical Twilight 5:16 AM MDT 8:26 PM MDT
Astronomical Twilight 4:41 AM MDT 9:01 PM MDT
Moon 2:11 PM MDT No Moon Set
Length of Visible Light 14h 01m
Length of Day
13h 04m
Tomorrow will be 2m 42s shorter.
First Quarter, 52% of the Moon is Illuminated
Today
First Quarter
Sep 8
Full
Sep 15
Last Quarter
Sep 24
New
Oct 1
First Quarter

Today's Extremes

State Highs State Lows

Community

WunderPhotos

Upload Photos

1,749,690 photos uploaded!

WunderBlogs® & News

Nearby

Snow Depth

Station Depth Elevation
No new snow has been reported.

Earthquake Activity

City Distance Mag. Time & Date
No recent earthquake activity has been reported nearby.
Minimum magnitude displayed is 2.5.

Coastal Water Temperatures

Place Temperature
No Stations Reporting

Nearby Weather Stations